createdAt,value
2018-12-06T00:01:27.893Z,3.07
2018-12-06T00:03:55.370Z,3.00
2018-12-06T00:06:22.845Z,3.03
2018-12-06T00:08:50.330Z,2.40
2018-12-06T00:11:17.804Z,2.83
2018-12-06T00:13:45.259Z,2.60
2018-12-06T00:16:12.731Z,2.87
2018-12-06T00:18:40.205Z,2.87
2018-12-06T00:21:07.715Z,2.53
2018-12-06T00:23:35.296Z,2.60
2018-12-06T00:26:02.774Z,2.43
2018-12-06T00:28:30.260Z,2.80
2018-12-06T00:30:57.750Z,2.43
2018-12-06T00:33:25.216Z,2.70
2018-12-06T00:35:52.686Z,2.60
2018-12-06T00:38:20.156Z,3.07
2018-12-06T00:40:47.660Z,3.07
2018-12-06T00:43:15.126Z,3.13
2018-12-06T00:45:42.612Z,3.23
2018-12-06T00:48:10.266Z,3.30
2018-12-06T00:50:37.734Z,2.70
2018-12-06T00:53:05.252Z,3.30
2018-12-06T00:55:32.726Z,2.90
2018-12-06T00:58:00.202Z,3.33
2018-12-06T01:00:27.670Z,3.53
2018-12-06T01:02:55.154Z,3.60
2018-12-06T01:05:22.614Z,4.10
2018-12-06T01:07:50.144Z,3.30
2018-12-06T01:10:17.739Z,3.33
2018-12-06T01:12:45.216Z,3.00
2018-12-06T01:15:12.788Z,3.80
2018-12-06T01:17:41.304Z,3.23
2018-12-06T01:20:08.898Z,3.47
2018-12-06T01:22:36.368Z,3.70
2018-12-06T01:25:04.663Z,3.57
2018-12-06T01:27:32.154Z,3.20
2018-12-06T01:29:59.615Z,3.80
2018-12-06T01:32:27.085Z,3.27
2018-12-06T01:34:54.615Z,3.00
2018-12-06T01:37:22.094Z,2.57
2018-12-06T01:39:49.566Z,2.93
2018-12-06T01:42:17.049Z,2.83
2018-12-06T01:44:44.512Z,2.90
2018-12-06T01:47:12.056Z,2.70
2018-12-06T01:49:39.514Z,2.90
2018-12-06T01:52:06.991Z,3.17
2018-12-06T01:54:34.466Z,3.17
2018-12-06T01:57:01.948Z,3.07
2018-12-06T01:59:29.407Z,3.27
2018-12-06T02:01:56.904Z,3.30
2018-12-06T02:04:24.391Z,3.00
2018-12-06T02:06:51.861Z,2.50
2018-12-06T02:09:19.334Z,3.13
2018-12-06T02:11:46.866Z,2.93
2018-12-06T02:14:14.348Z,3.10
2018-12-06T02:16:41.814Z,2.63
2018-12-06T02:19:09.302Z,2.53
2018-12-06T02:21:36.770Z,2.47
2018-12-06T02:24:04.274Z,3.10
2018-12-06T02:26:31.732Z,2.87
2018-12-06T02:28:59.214Z,2.73
2018-12-06T02:31:26.679Z,3.30
2018-12-06T02:33:54.153Z,3.70
2018-12-06T02:36:21.621Z,3.43
2018-12-06T02:38:49.109Z,3.17
2018-12-06T02:41:17.559Z,3.03
2018-12-06T02:43:45.015Z,2.93
2018-12-06T02:46:12.506Z,3.20
2018-12-06T02:48:40.013Z,2.73
2018-12-06T02:51:07.558Z,2.60
2018-12-06T02:53:35.124Z,2.83
2018-12-06T02:56:02.638Z,2.73
2018-12-06T02:58:30.122Z,2.43
2018-12-06T03:00:57.588Z,2.20
2018-12-06T03:03:25.066Z,2.37
2018-12-06T03:05:52.568Z,2.47
2018-12-06T03:08:20.048Z,2.07
2018-12-06T03:10:47.519Z,2.20
2018-12-06T03:13:15.003Z,1.77
2018-12-06T03:15:42.491Z,2.20
2018-12-06T03:18:09.977Z,1.90
2018-12-06T03:20:37.449Z,2.33
2018-12-06T03:23:04.917Z,1.80
2018-12-06T03:25:32.402Z,1.90
2018-12-06T03:27:59.879Z,2.03
2018-12-06T03:30:27.350Z,1.90
2018-12-06T03:32:54.826Z,2.10
2018-12-06T03:35:22.295Z,1.60
2018-12-06T03:37:49.754Z,1.50
2018-12-06T03:40:17.239Z,1.93
2018-12-06T03:42:44.722Z,1.60
2018-12-06T03:45:12.258Z,1.70
2018-12-06T03:47:39.733Z,1.30
2018-12-06T03:50:07.370Z,1.90
2018-12-06T03:52:34.840Z,1.70
2018-12-06T03:55:02.308Z,1.80
2018-12-06T03:57:29.766Z,1.50
2018-12-06T03:59:57.230Z,1.50
2018-12-06T04:02:24.714Z,1.43
2018-12-06T04:04:52.193Z,1.73
2018-12-06T04:07:19.817Z,1.73
2018-12-06T04:09:47.302Z,1.47
2018-12-06T04:12:14.776Z,1.63
2018-12-06T04:14:42.355Z,1.47
2018-12-06T04:17:09.813Z,1.70
2018-12-06T04:19:37.319Z,1.57
2018-12-06T04:22:04.783Z,1.80
2018-12-06T04:24:32.256Z,1.23
2018-12-06T04:26:59.743Z,1.80
2018-12-06T04:29:27.195Z,1.40
2018-12-06T04:31:54.698Z,1.63
2018-12-06T04:34:22.166Z,1.40
2018-12-06T04:36:49.669Z,1.40
2018-12-06T04:39:17.136Z,1.40
2018-12-06T04:41:44.631Z,1.70
2018-12-06T04:44:12.094Z,1.40
2018-12-06T04:46:39.576Z,1.47
2018-12-06T04:49:07.033Z,1.13
2018-12-06T04:51:34.516Z,1.43
2018-12-06T04:54:01.966Z,1.30
2018-12-06T04:56:29.581Z,1.67
2018-12-06T04:58:57.086Z,1.37
2018-12-06T05:01:24.562Z,1.60
2018-12-06T05:03:52.093Z,1.70
2018-12-06T05:06:19.628Z,1.60
2018-12-06T05:08:47.099Z,1.67
2018-12-06T05:11:14.587Z,1.40
2018-12-06T05:13:42.521Z,1.20
2018-12-06T05:16:10.003Z,1.60
2018-12-06T05:18:37.469Z,1.83
2018-12-06T05:21:04.942Z,1.30
2018-12-06T05:23:32.425Z,1.40
2018-12-06T05:25:59.893Z,1.40
2018-12-06T05:28:27.367Z,1.53
2018-12-06T05:30:54.886Z,1.70
2018-12-06T05:33:22.376Z,1.50
2018-12-06T05:35:49.849Z,1.70
2018-12-06T05:38:17.343Z,1.40
2018-12-06T05:40:44.893Z,1.53
2018-12-06T05:43:12.397Z,1.90
2018-12-06T05:45:39.869Z,1.33
2018-12-06T05:48:07.414Z,1.80
2018-12-06T05:50:34.898Z,1.77
2018-12-06T05:53:02.369Z,1.80
2018-12-06T05:55:29.840Z,1.80
2018-12-06T05:57:57.348Z,1.70
2018-12-06T06:00:24.811Z,1.97
2018-12-06T06:02:52.290Z,2.23
2018-12-06T06:05:19.764Z,1.73
2018-12-06T06:07:47.262Z,1.80
2018-12-06T06:10:14.736Z,1.93
2018-12-06T06:12:42.221Z,1.80
2018-12-06T06:15:09.771Z,1.80
2018-12-06T06:17:38.431Z,1.83
2018-12-06T06:20:05.971Z,2.03
2018-12-06T06:22:33.439Z,1.93
2018-12-06T06:25:00.947Z,2.23
2018-12-06T06:27:28.533Z,1.93
2018-12-06T06:29:56.018Z,1.93
2018-12-06T06:32:23.476Z,2.00
2018-12-06T06:34:50.970Z,1.97
2018-12-06T06:37:18.436Z,1.93
2018-12-06T06:39:45.912Z,1.90
2018-12-06T06:42:13.385Z,2.07
2018-12-06T06:44:40.859Z,2.03
2018-12-06T06:47:08.530Z,2.00
2018-12-06T06:49:36.019Z,2.20
2018-12-06T06:52:03.552Z,1.70
2018-12-06T06:54:31.021Z,2.20
2018-12-06T06:56:58.485Z,2.07
2018-12-06T06:59:26.484Z,2.23
2018-12-06T07:01:54.107Z,2.47
2018-12-06T07:04:21.573Z,2.10
2018-12-06T07:06:49.064Z,2.33
2018-12-06T07:09:16.522Z,2.20
2018-12-06T07:11:43.982Z,2.00
2018-12-06T07:14:11.461Z,2.07
2018-12-06T07:16:39.408Z,2.43
2018-12-06T07:19:06.876Z,1.83
2018-12-06T07:21:34.348Z,2.30
2018-12-06T07:24:01.818Z,2.20
2018-12-06T07:26:29.301Z,2.43
2018-12-06T07:28:56.867Z,2.17
2018-12-06T07:31:24.402Z,2.40
2018-12-06T07:33:51.867Z,2.47
2018-12-06T07:36:19.336Z,2.07
2018-12-06T07:38:46.824Z,2.60
2018-12-06T07:41:14.299Z,2.67
2018-12-06T07:43:41.754Z,2.40
2018-12-06T07:46:10.102Z,2.70
2018-12-06T07:48:37.626Z,2.30
2018-12-06T07:51:06.911Z,3.30
2018-12-06T07:53:34.449Z,2.77
2018-12-06T07:56:02.693Z,2.73
2018-12-06T07:58:30.258Z,2.40
2018-12-06T08:00:57.814Z,2.77
2018-12-06T08:03:25.268Z,2.87
2018-12-06T08:05:52.754Z,2.50
2018-12-06T08:08:20.215Z,2.90
2018-12-06T08:10:47.694Z,3.13
2018-12-06T08:13:15.163Z,2.80
2018-12-06T08:15:42.623Z,2.60
2018-12-06T08:18:10.944Z,2.50
2018-12-06T08:20:38.462Z,2.83
2018-12-06T08:23:05.935Z,3.10
2018-12-06T08:25:36.217Z,2.90
2018-12-06T08:28:03.748Z,2.90
2018-12-06T08:30:31.224Z,3.47
2018-12-06T08:32:58.716Z,3.07
2018-12-06T08:35:26.183Z,2.77
2018-12-06T08:37:53.657Z,3.00
2018-12-06T08:40:21.129Z,3.13
2018-12-06T08:42:48.618Z,3.07
2018-12-06T08:45:16.078Z,3.20
2018-12-06T08:47:43.583Z,3.27
2018-12-06T08:50:11.171Z,3.00
2018-12-06T08:52:39.077Z,3.70
2018-12-06T08:55:06.681Z,3.50
2018-12-06T08:57:34.289Z,3.60
2018-12-06T09:00:01.819Z,3.57
2018-12-06T09:02:29.365Z,3.50
2018-12-06T09:04:56.847Z,3.10
2018-12-06T09:07:24.320Z,3.43
2018-12-06T09:09:51.797Z,3.27
2018-12-06T09:12:19.259Z,3.47
2018-12-06T09:14:46.741Z,3.40
2018-12-06T09:17:14.229Z,3.33
2018-12-06T09:19:41.734Z,3.77
2018-12-06T09:22:09.201Z,3.80
2018-12-06T09:24:37.497Z,3.40
2018-12-06T09:27:04.970Z,3.77
2018-12-06T09:29:32.434Z,3.77
2018-12-06T09:31:59.944Z,3.73
2018-12-06T09:34:27.419Z,4.03
2018-12-06T09:36:54.967Z,4.20
2018-12-06T09:39:22.440Z,3.37
2018-12-06T09:41:49.912Z,3.83
2018-12-06T09:44:17.466Z,3.90
2018-12-06T09:46:44.967Z,4.27
2018-12-06T09:49:14.054Z,3.50
2018-12-06T09:51:41.523Z,4.50
2018-12-06T09:54:09.006Z,4.07
2018-12-06T09:56:36.558Z,3.90
2018-12-06T09:59:04.155Z,4.27
2018-12-06T10:01:31.625Z,3.83
2018-12-06T10:03:59.100Z,5.03
2018-12-06T10:06:26.574Z,4.63
2018-12-06T10:08:54.055Z,4.80
2018-12-06T10:11:21.532Z,4.40
2018-12-06T10:13:49.009Z,4.40
2018-12-06T10:16:16.477Z,4.50
2018-12-06T10:18:43.957Z,4.23
2018-12-06T10:21:11.435Z,5.13
2018-12-06T10:23:39.395Z,5.07
2018-12-06T10:26:07.895Z,4.63
2018-12-06T10:28:35.373Z,4.90
2018-12-06T10:31:02.834Z,4.37
2018-12-06T10:33:30.339Z,4.40
2018-12-06T10:35:58.497Z,5.10
2018-12-06T10:38:25.972Z,4.60
2018-12-06T10:40:53.450Z,4.63
2018-12-06T10:43:20.909Z,4.80
2018-12-06T10:45:48.391Z,4.83
2018-12-06T10:48:15.855Z,4.80
2018-12-06T10:50:43.349Z,5.23
2018-12-06T10:53:10.807Z,4.47
2018-12-06T10:55:38.283Z,4.63
2018-12-06T10:58:05.765Z,5.13
2018-12-06T11:00:38.954Z,5.40
2018-12-06T11:03:13.157Z,5.10
2018-12-06T11:05:40.703Z,5.77
2018-12-06T11:08:08.166Z,5.30
2018-12-06T11:10:35.649Z,5.00
2018-12-06T11:13:03.140Z,4.87
2018-12-06T11:15:30.656Z,5.30
2018-12-06T11:17:58.128Z,5.20
2018-12-06T11:20:25.609Z,5.27
2018-12-06T11:22:53.930Z,5.90
2018-12-06T11:25:21.404Z,5.30
2018-12-06T11:28:21.966Z,6.07
2018-12-06T11:30:49.486Z,5.43
2018-12-06T11:33:16.956Z,5.23
2018-12-06T11:35:44.441Z,5.50
2018-12-06T11:38:12.168Z,6.40
2018-12-06T11:40:39.635Z,5.60
2018-12-06T11:43:07.105Z,5.80
2018-12-06T11:45:34.645Z,5.43
2018-12-06T11:48:02.212Z,5.93
2018-12-06T11:50:29.709Z,5.40
2018-12-06T11:52:57.513Z,5.60
2018-12-06T11:55:25.067Z,4.93
2018-12-06T11:57:52.683Z,5.83
2018-12-06T12:00:20.185Z,5.57
2018-12-06T12:02:47.643Z,5.63
2018-12-06T12:05:15.217Z,5.83
2018-12-06T12:07:42.793Z,4.93
2018-12-06T12:10:10.877Z,5.30
2018-12-06T12:12:38.349Z,5.43
2018-12-06T12:15:07.050Z,5.53
2018-12-06T12:17:34.503Z,5.27
2018-12-06T12:20:01.993Z,5.30
2018-12-06T12:22:29.463Z,5.10
2018-12-06T12:24:56.927Z,5.10
2018-12-06T12:27:25.037Z,5.13
2018-12-06T12:29:52.519Z,5.10
2018-12-06T12:32:19.979Z,5.27
2018-12-06T12:34:47.527Z,5.07
2018-12-06T12:37:15.044Z,4.80
2018-12-06T12:39:42.508Z,4.57
2018-12-06T12:42:09.975Z,5.07
2018-12-06T12:44:37.462Z,5.77
2018-12-06T12:47:06.308Z,4.87
2018-12-06T12:49:33.802Z,4.73
2018-12-06T12:52:01.292Z,4.93
2018-12-06T12:54:28.766Z,4.40
2018-12-06T12:56:56.242Z,5.30
2018-12-06T12:59:23.724Z,5.07
2018-12-06T13:01:51.200Z,5.10
2018-12-06T13:04:18.714Z,4.60
2018-12-06T13:06:46.378Z,4.33
2018-12-06T13:09:13.838Z,4.60
2018-12-06T13:11:41.314Z,4.77
2018-12-06T13:14:08.836Z,4.80
2018-12-06T13:16:36.318Z,4.83
2018-12-06T13:19:03.880Z,4.50
2018-12-06T13:21:31.350Z,4.53
2018-12-06T13:23:58.811Z,4.87
2018-12-06T13:26:26.406Z,5.13
2018-12-06T13:28:53.888Z,4.60
2018-12-06T13:31:21.382Z,5.37
2018-12-06T13:33:48.915Z,4.93
2018-12-06T13:36:16.374Z,4.67
2018-12-06T13:38:44.293Z,5.03
2018-12-06T13:41:11.835Z,4.67
2018-12-06T13:43:39.313Z,4.90
2018-12-06T13:46:06.874Z,7.23
2018-12-06T13:48:34.373Z,8.77
2018-12-06T13:51:01.920Z,7.73
2018-12-06T13:53:29.379Z,5.33
2018-12-06T13:55:56.936Z,4.90
2018-12-06T13:58:24.412Z,5.13
2018-12-06T14:00:52.126Z,4.80
2018-12-06T14:03:19.955Z,4.27
2018-12-06T14:05:47.429Z,5.10
2018-12-06T14:08:14.904Z,4.53
2018-12-06T14:10:42.433Z,4.47
2018-12-06T14:13:09.913Z,4.97
2018-12-06T14:15:37.447Z,4.53
2018-12-06T14:18:04.935Z,4.60
2018-12-06T14:20:32.395Z,4.30
2018-12-06T14:22:59.881Z,3.93
2018-12-06T14:25:27.361Z,4.47
2018-12-06T14:27:54.870Z,4.70
2018-12-06T14:30:22.443Z,4.10
2018-12-06T14:32:49.934Z,4.37
2018-12-06T14:35:17.397Z,4.47
2018-12-06T14:37:44.881Z,4.07
2018-12-06T14:40:12.433Z,3.37
2018-12-06T14:42:39.927Z,4.17
2018-12-06T14:45:07.525Z,4.00
2018-12-06T14:47:36.098Z,3.83
2018-12-06T14:50:05.526Z,3.93
2018-12-06T14:52:32.990Z,4.17
2018-12-06T14:55:00.470Z,4.50
2018-12-06T14:57:27.952Z,4.00
2018-12-06T14:59:55.436Z,4.10
2018-12-06T15:02:22.916Z,4.47
2018-12-06T15:04:50.375Z,4.20
2018-12-06T15:07:17.863Z,4.40
2018-12-06T15:09:45.356Z,4.33
2018-12-06T15:12:13.297Z,4.67
2018-12-06T15:14:40.835Z,4.03
2018-12-06T15:17:08.300Z,4.40
2018-12-06T15:19:35.790Z,3.70
2018-12-06T15:22:03.263Z,3.80
2018-12-06T15:24:30.749Z,3.80
2018-12-06T15:26:58.223Z,3.73
2018-12-06T15:29:25.713Z,4.30
2018-12-06T15:31:53.192Z,4.13
2018-12-06T15:34:20.677Z,3.67
2018-12-06T15:36:48.158Z,4.03
2018-12-06T15:39:15.632Z,3.93
2018-12-06T15:41:43.102Z,3.63
2018-12-06T15:44:10.655Z,3.87
2018-12-06T15:46:38.201Z,3.47
2018-12-06T15:49:05.698Z,4.20
2018-12-06T15:51:33.159Z,3.93
2018-12-06T15:54:00.627Z,3.43
2018-12-06T15:56:28.101Z,3.43
2018-12-06T15:58:55.592Z,3.13
2018-12-06T16:01:23.062Z,3.37
2018-12-06T16:03:50.518Z,3.90
2018-12-06T16:06:18.015Z,3.60
2018-12-06T16:08:45.475Z,3.57
2018-12-06T16:11:12.951Z,3.30
2018-12-06T16:13:40.419Z,3.27
2018-12-06T16:16:07.885Z,3.40
2018-12-06T16:18:35.343Z,3.43
2018-12-06T16:21:02.831Z,3.67
2018-12-06T16:23:30.317Z,3.60
2018-12-06T16:25:57.818Z,3.70
2018-12-06T16:28:25.302Z,3.67
2018-12-06T16:30:52.797Z,3.93
2018-12-06T16:33:20.347Z,3.33
2018-12-06T16:35:47.821Z,3.47
2018-12-06T16:38:15.371Z,3.40
2018-12-06T16:40:42.921Z,3.60
2018-12-06T16:43:10.466Z,3.93
2018-12-06T16:45:37.951Z,3.67
2018-12-06T16:48:05.423Z,3.90
2018-12-06T16:50:32.901Z,4.03
2018-12-06T16:53:00.373Z,3.73
2018-12-06T16:55:27.861Z,4.03
2018-12-06T16:57:55.332Z,4.20
2018-12-06T17:00:22.813Z,4.00
2018-12-06T17:02:50.287Z,4.00
2018-12-06T17:05:17.777Z,3.60
2018-12-06T17:07:45.483Z,3.47
2018-12-06T17:10:12.982Z,3.93
2018-12-06T17:12:40.458Z,3.87
2018-12-06T17:15:08.046Z,4.00
2018-12-06T17:17:35.503Z,3.90
2018-12-06T17:20:03.745Z,4.13
2018-12-06T17:22:31.232Z,4.13
2018-12-06T17:24:58.713Z,4.27
2018-12-06T17:27:26.222Z,4.23
2018-12-06T17:29:53.947Z,4.33
2018-12-06T17:32:21.496Z,4.47
2018-12-06T17:34:49.782Z,4.67
2018-12-06T17:37:17.416Z,4.37
2018-12-06T17:39:44.918Z,4.73
2018-12-06T17:42:12.428Z,4.70
2018-12-06T17:44:39.906Z,5.03
2018-12-06T17:47:07.442Z,4.70
2018-12-06T17:49:34.918Z,4.87
2018-12-06T17:52:02.395Z,4.63
2018-12-06T17:54:31.627Z,4.63
2018-12-06T17:56:59.146Z,4.63
2018-12-06T17:59:26.621Z,4.60
2018-12-06T18:01:54.084Z,5.27
2018-12-06T18:04:21.557Z,5.40
2018-12-06T18:06:49.051Z,4.70
2018-12-06T18:09:16.535Z,4.90
2018-12-06T18:11:44.011Z,4.80
2018-12-06T18:14:11.816Z,5.00
2018-12-06T18:16:39.311Z,4.87
2018-12-06T18:19:06.779Z,4.97
2018-12-06T18:21:34.415Z,5.13
2018-12-06T18:24:01.935Z,4.20
2018-12-06T18:26:29.393Z,5.30
2018-12-06T18:28:56.876Z,5.17
2018-12-06T18:31:24.382Z,4.63
2018-12-06T18:33:51.851Z,4.60
2018-12-06T18:36:19.319Z,5.10
2018-12-06T18:38:46.797Z,4.97
2018-12-06T18:41:14.289Z,4.70
2018-12-06T18:43:41.976Z,5.20
2018-12-06T18:46:09.454Z,5.50
2018-12-06T18:48:37.995Z,5.33
2018-12-06T18:51:05.471Z,5.20
2018-12-06T18:53:33.037Z,5.03
2018-12-06T18:56:00.575Z,5.47
2018-12-06T18:58:34.166Z,4.57
2018-12-06T19:00:57.796Z,5.80
2018-12-06T19:03:25.454Z,5.80
2018-12-06T19:05:52.929Z,4.90
2018-12-06T19:08:20.416Z,4.70
2018-12-06T19:10:47.890Z,5.13
2018-12-06T19:13:15.381Z,5.40
2018-12-06T19:15:42.857Z,4.83
2018-12-06T19:18:10.540Z,4.53
2018-12-06T19:20:38.000Z,4.90
2018-12-06T19:23:05.490Z,4.23
2018-12-06T19:25:32.947Z,4.60
2018-12-06T19:28:00.427Z,5.00
2018-12-06T19:30:27.903Z,5.00
2018-12-06T19:32:59.358Z,4.63
2018-12-06T19:35:24.888Z,4.83
2018-12-06T19:37:52.450Z,5.60
2018-12-06T19:40:19.960Z,4.60
2018-12-06T19:42:47.466Z,5.33
2018-12-06T19:45:14.934Z,5.40
2018-12-06T19:47:42.491Z,6.40
2018-12-06T19:50:10.112Z,5.43
2018-12-06T19:52:37.594Z,6.10
2018-12-06T19:55:05.708Z,5.50
2018-12-06T19:57:33.180Z,6.10
2018-12-06T20:00:00.667Z,6.20
2018-12-06T20:02:28.147Z,5.67
2018-12-06T20:04:55.689Z,5.70
2018-12-06T20:07:23.211Z,5.07
2018-12-06T20:09:50.691Z,5.60
2018-12-06T20:12:18.169Z,5.20
2018-12-06T20:14:45.635Z,5.30
2018-12-06T20:17:13.215Z,5.30
2018-12-06T20:19:40.695Z,4.90
2018-12-06T20:22:08.358Z,4.37
2018-12-06T20:24:36.141Z,4.30
2018-12-06T20:27:03.628Z,4.53
2018-12-06T20:29:31.105Z,4.90
2018-12-06T20:31:58.572Z,5.20
2018-12-06T20:34:26.054Z,4.47
2018-12-06T20:36:53.585Z,4.50
2018-12-06T20:39:21.083Z,4.33
2018-12-06T20:41:48.551Z,5.90
2018-12-06T20:44:16.043Z,4.40
2018-12-06T20:46:44.720Z,4.03
2018-12-06T20:49:12.186Z,5.40
2018-12-06T20:51:39.694Z,4.03
2018-12-06T20:54:07.215Z,4.10
2018-12-06T20:56:34.694Z,4.27
2018-12-06T20:59:02.174Z,3.90
2018-12-06T21:01:29.704Z,3.93
2018-12-06T21:03:57.286Z,3.47
2018-12-06T21:06:24.820Z,3.77
2018-12-06T21:08:52.288Z,3.67
2018-12-06T21:11:19.764Z,3.63
2018-12-06T21:13:47.314Z,3.80
2018-12-06T21:16:14.800Z,3.70
2018-12-06T21:18:42.272Z,3.53
2018-12-06T21:21:09.772Z,3.57
2018-12-06T21:23:37.284Z,3.40
2018-12-06T21:26:04.755Z,3.83
2018-12-06T21:28:32.218Z,3.57
2018-12-06T21:30:59.756Z,3.23
2018-12-06T21:33:27.424Z,3.47
2018-12-06T21:35:54.947Z,3.53
2018-12-06T21:38:24.409Z,3.10
2018-12-06T21:40:51.888Z,3.50
2018-12-06T21:43:19.383Z,3.20
2018-12-06T21:45:46.857Z,3.10
2018-12-06T21:48:14.390Z,2.80
2018-12-06T21:50:41.862Z,2.87
2018-12-06T21:53:09.353Z,2.70
2018-12-06T21:55:36.826Z,3.10
2018-12-06T21:58:04.318Z,3.10
2018-12-06T22:00:31.807Z,2.67
2018-12-06T22:02:59.287Z,2.93
2018-12-06T22:05:26.762Z,2.73
2018-12-06T22:07:54.230Z,3.07
2018-12-06T22:10:21.700Z,3.30
2018-12-06T22:12:49.177Z,2.60
2018-12-06T22:15:16.621Z,2.70
2018-12-06T22:17:44.113Z,2.90
2018-12-06T22:20:11.581Z,2.57
2018-12-06T22:22:39.056Z,2.47
2018-12-06T22:25:06.584Z,3.10
2018-12-06T22:27:34.052Z,3.07
2018-12-06T22:30:01.564Z,2.90
2018-12-06T22:32:29.034Z,3.20
2018-12-06T22:34:56.504Z,3.20
2018-12-06T22:37:24.004Z,2.87
2018-12-06T22:39:51.466Z,2.87
2018-12-06T22:42:18.942Z,3.70
2018-12-06T22:44:46.402Z,3.47
2018-12-06T22:47:13.881Z,2.93
2018-12-06T22:49:41.353Z,3.47
2018-12-06T22:52:08.836Z,3.50
2018-12-06T22:54:37.202Z,4.20
2018-12-06T22:57:04.879Z,3.00
2018-12-06T22:59:32.368Z,3.60
2018-12-06T23:01:59.910Z,4.33
2018-12-06T23:04:27.379Z,3.90
2018-12-06T23:06:54.880Z,4.03
2018-12-06T23:09:22.434Z,3.80
2018-12-06T23:11:49.976Z,3.90
2018-12-06T23:14:17.694Z,4.40
2018-12-06T23:16:45.161Z,4.57
2018-12-06T23:19:13.738Z,4.60
2018-12-06T23:21:41.460Z,4.57
2018-12-06T23:24:08.917Z,4.57
2018-12-06T23:26:37.498Z,4.30
2018-12-06T23:29:05.017Z,4.10
2018-12-06T23:31:32.503Z,4.57
2018-12-06T23:33:59.985Z,4.57
2018-12-06T23:36:27.471Z,4.70
2018-12-06T23:38:54.964Z,4.80
2018-12-06T23:41:22.483Z,4.67
2018-12-06T23:43:49.991Z,4.57
2018-12-06T23:46:17.487Z,4.80
2018-12-06T23:48:44.971Z,5.20
2018-12-06T23:51:24.233Z,4.97
2018-12-06T23:53:51.711Z,5.10
2018-12-06T23:56:19.187Z,4.83
2018-12-06T23:58:46.729Z,5.00
